sensor_id;sensor_type;location;lat;lon;timestamp;pressure;altitude;pressure_sealevel;temperature;humidity
71126;BME280;58785;55.566;38.058;2023-02-18T00:01:19;100492.16;;;-8.67;68.86
71126;BME280;58785;55.566;38.058;2023-02-18T00:03:45;100475.84;;;-8.71;67.93
71126;BME280;58785;55.566;38.058;2023-02-18T00:06:19;100486.03;;;-8.62;68.40
71126;BME280;58785;55.566;38.058;2023-02-18T00:08:46;100489.47;;;-8.60;68.19
71126;BME280;58785;55.566;38.058;2023-02-18T00:11:13;100481.75;;;-8.64;69.32
71126;BME280;58785;55.566;38.058;2023-02-18T00:13:39;100489.50;;;-8.63;68.77
71126;BME280;58785;55.566;38.058;2023-02-18T00:16:07;100486.91;;;-8.60;68.60
71126;BME280;58785;55.566;38.058;2023-02-18T00:18:33;100486.88;;;-8.58;68.17
71126;BME280;58785;55.566;38.058;2023-02-18T00:20:59;100471.41;;;-8.61;68.38
71126;BME280;58785;55.566;38.058;2023-02-18T00:23:25;100451.66;;;-8.68;68.75
71126;BME280;58785;55.566;38.058;2023-02-18T00:26:23;100464.50;;;-8.62;69.40
71126;BME280;58785;55.566;38.058;2023-02-18T00:28:49;100447.41;;;-8.74;68.44
71126;BME280;58785;55.566;38.058;2023-02-18T00:31:24;100450.84;;;-8.74;68.92
71126;BME280;58785;55.566;38.058;2023-02-18T00:33:50;100457.66;;;-8.66;68.98
71126;BME280;58785;55.566;38.058;2023-02-18T00:36:17;100464.53;;;-8.65;68.55
71126;BME280;58785;55.566;38.058;2023-02-18T00:38:51;100447.41;;;-8.71;68.55
71126;BME280;58785;55.566;38.058;2023-02-18T00:41:18;100462.81;;;-8.65;68.53
71126;BME280;58785;55.566;38.058;2023-02-18T00:43:45;100453.31;;;-8.61;68.51
71126;BME280;58785;55.566;38.058;2023-02-18T00:46:11;100460.13;;;-8.56;68.51
71126;BME280;58785;55.566;38.058;2023-02-18T00:48:38;100453.19;;;-8.54;68.17
71126;BME280;58785;55.566;38.058;2023-02-18T00:51:04;100458.41;;;-8.57;67.97
71126;BME280;58785;55.566;38.058;2023-02-18T00:53:31;100444.66;;;-8.59;67.77
71126;BME280;58785;55.566;38.058;2023-02-18T00:55:57;100448.94;;;-8.58;68.75
71126;BME280;58785;55.566;38.058;2023-02-18T00:58:23;100446.41;;;-8.62;68.81
71126;BME280;58785;55.566;38.058;2023-02-18T01:00:49;100440.44;;;-8.66;68.77
71126;BME280;58785;55.566;38.058;2023-02-18T01:03:15;100416.38;;;-8.70;68.73
71126;BME280;58785;55.566;38.058;2023-02-18T01:05:41;100436.09;;;-8.64;68.23
71126;BME280;58785;55.566;38.058;2023-02-18T01:08:09;100436.09;;;-8.64;68.10
71126;BME280;58785;55.566;38.058;2023-02-18T01:10:47;100398.41;;;-8.82;68.40
71126;BME280;58785;55.566;38.058;2023-02-18T01:13:14;100427.47;;;-8.64;67.65
71126;BME280;58785;55.566;38.058;2023-02-18T01:15:40;100415.53;;;-8.72;67.77
71126;BME280;58785;55.566;38.058;2023-02-18T01:18:07;100408.72;;;-8.77;67.95
71126;BME280;58785;55.566;38.058;2023-02-18T01:20:35;100407.06;;;-8.84;68.88
71126;BME280;58785;55.566;38.058;2023-02-18T01:23:01;100402.81;;;-8.88;68.27
71126;BME280;58785;55.566;38.058;2023-02-18T01:25:30;100404.63;;;-8.95;68.19
71126;BME280;58785;55.566;38.058;2023-02-18T01:27:56;100396.91;;;-8.98;68.06
71126;BME280;58785;55.566;38.058;2023-02-18T01:30:22;100407.28;;;-9.03;68.89
71126;BME280;58785;55.566;38.058;2023-02-18T01:32:48;100391.78;;;-9.01;68.58
71126;BME280;58785;55.566;38.058;2023-02-18T01:35:17;100374.63;;;-9.07;69.33
71126;BME280;58785;55.566;38.058;2023-02-18T01:37:43;100369.53;;;-9.11;68.70
71126;BME280;58785;55.566;38.058;2023-02-18T01:40:15;100373.75;;;-9.06;68.97
71126;BME280;58785;55.566;38.058;2023-02-18T01:42:44;100357.50;;;-9.15;67.98
71126;BME280;58785;55.566;38.058;2023-02-18T01:50:30;100367.91;;;-9.20;68.50
71126;BME280;58785;55.566;38.058;2023-02-18T01:52:58;100363.59;;;-9.18;68.93
71126;BME280;58785;55.566;38.058;2023-02-18T01:55:24;100354.13;;;-9.19;68.86
71126;BME280;58785;55.566;38.058;2023-02-18T01:57:50;100349.88;;;-9.24;68.90
71126;BME280;58785;55.566;38.058;2023-02-18T02:00:17;100347.31;;;-9.26;68.17
71126;BME280;58785;55.566;38.058;2023-02-18T02:02:50;100352.56;;;-9.31;68.66
71126;BME280;58785;55.566;38.058;2023-02-18T02:05:18;100343.09;;;-9.32;68.03
71126;BME280;58785;55.566;38.058;2023-02-18T02:07:44;100331.97;;;-9.38;68.63
71126;BME280;58785;55.566;38.058;2023-02-18T02:10:13;100326.09;;;-9.49;69.33
71126;BME280;58785;55.566;38.058;2023-02-18T02:32:34;100309.66;;;-9.41;69.02
71126;BME280;58785;55.566;38.058;2023-02-18T02:35:35;100307.06;;;-9.42;67.92
71126;BME280;58785;55.566;38.058;2023-02-18T02:38:28;100305.31;;;-9.39;68.21
71126;BME280;58785;55.566;38.058;2023-02-18T02:46:46;100299.75;;;-9.08;67.99
71126;BME280;58785;55.566;38.058;2023-02-18T02:54:22;100284.91;;;-8.94;66.99
71126;BME280;58785;55.566;38.058;2023-02-18T02:59:43;100278.81;;;-8.88;67.30
71126;BME280;58785;55.566;38.058;2023-02-18T03:15:36;100255.81;;;-8.48;67.67
71126;BME280;58785;55.566;38.058;2023-02-18T03:20:37;100260.75;;;-8.36;67.06
71126;BME280;58785;55.566;38.058;2023-02-18T03:23:10;100253.69;;;-8.28;67.16
71126;BME280;58785;55.566;38.058;2023-02-18T03:25:39;100248.38;;;-8.19;67.30
71126;BME280;58785;55.566;38.058;2023-02-18T03:28:08;100246.34;;;-8.03;67.02
71126;BME280;58785;55.566;38.058;2023-02-18T03:30:42;100242.75;;;-7.94;66.63
71126;BME280;58785;55.566;38.058;2023-02-18T03:33:12;100239.22;;;-7.90;67.04
71126;BME280;58785;55.566;38.058;2023-02-18T03:35:40;100240.09;;;-7.90;66.80
71126;BME280;58785;55.566;38.058;2023-02-18T03:38:18;100227.13;;;-7.88;67.02
71126;BME280;58785;55.566;38.058;2023-02-18T03:40:45;100229.66;;;-7.87;67.16
71126;BME280;58785;55.566;38.058;2023-02-18T03:43:11;100210.59;;;-7.83;66.82
71126;BME280;58785;55.566;38.058;2023-02-18T03:45:36;100207.94;;;-7.78;67.31
71126;BME280;58785;55.566;38.058;2023-02-18T03:48:02;100210.31;;;-7.67;67.45
71126;BME280;58785;55.566;38.058;2023-02-18T03:50:28;100212.63;;;-7.55;67.08
71126;BME280;58785;55.566;38.058;2023-02-18T03:52:53;100195.31;;;-7.53;67.15
71126;BME280;58785;55.566;38.058;2023-02-18T03:55:19;100207.00;;;-7.34;66.79
71126;BME280;58785;55.566;38.058;2023-02-18T03:57:45;100197.41;;;-7.29;67.27
71126;BME280;58785;55.566;38.058;2023-02-18T04:00:10;100191.97;;;-7.18;66.71
71126;BME280;58785;55.566;38.058;2023-02-18T04:02:36;100193.50;;;-7.09;66.97
71126;BME280;58785;55.566;38.058;2023-02-18T04:05:02;100179.63;;;-7.07;66.69
71126;BME280;58785;55.566;38.058;2023-02-18T04:07:28;100189.78;;;-6.98;66.54
71126;BME280;58785;55.566;38.058;2023-02-18T04:09:54;100179.34;;;-6.95;67.29
71126;BME280;58785;55.566;38.058;2023-02-18T04:12:20;100181.94;;;-6.95;67.42
71126;BME280;58785;55.566;38.058;2023-02-18T04:14:46;100169.81;;;-6.94;67.08
71126;BME280;58785;55.566;38.058;2023-02-18T04:17:11;100172.34;;;-6.91;67.58
71126;BME280;58785;55.566;38.058;2023-02-18T04:19:37;100167.91;;;-6.86;67.36
71126;BME280;58785;55.566;38.058;2023-02-18T04:22:02;100167.81;;;-6.81;67.03
71126;BME280;58785;55.566;38.058;2023-02-18T04:24:28;100156.47;;;-6.77;67.42
71126;BME280;58785;55.566;38.058;2023-02-18T04:26:54;100158.13;;;-6.75;67.58
71126;BME280;58785;55.566;38.058;2023-02-18T04:29:19;100145.97;;;-6.73;67.20
71126;BME280;58785;55.566;38.058;2023-02-18T04:31:45;100146.66;;;-6.66;66.88
71126;BME280;58785;55.566;38.058;2023-02-18T04:34:11;100128.56;;;-6.68;67.13
71126;BME280;58785;55.566;38.058;2023-02-18T04:36:36;100134.28;;;-6.55;67.07
71126;BME280;58785;55.566;38.058;2023-02-18T04:39:02;100136.72;;;-6.49;67.22
71126;BME280;58785;55.566;38.058;2023-02-18T04:41:28;100124.50;;;-6.45;67.40
71126;BME280;58785;55.566;38.058;2023-02-18T04:43:53;100120.97;;;-6.43;67.26
71126;BME280;58785;55.566;38.058;2023-02-18T04:46:19;100115.63;;;-6.37;67.70
71126;BME280;58785;55.566;38.058;2023-02-18T04:48:45;100114.63;;;-6.31;67.31
71126;BME280;58785;55.566;38.058;2023-02-18T04:51:10;100111.84;;;-6.25;67.60
71126;BME280;58785;55.566;38.058;2023-02-18T04:53:36;100102.22;;;-6.21;68.00
71126;BME280;58785;55.566;38.058;2023-02-18T04:56:01;100085.81;;;-6.20;67.79
71126;BME280;58785;55.566;38.058;2023-02-18T04:58:27;100095.94;;;-6.13;67.84
71126;BME280;58785;55.566;38.058;2023-02-18T05:00:53;100096.88;;;-6.15;68.39
71126;BME280;58785;55.566;38.058;2023-02-18T05:03:22;100081.34;;;-6.17;68.94
71126;BME280;58785;55.566;38.058;2023-02-18T05:05:48;100093.22;;;-6.08;69.27
71126;BME280;58785;55.566;38.058;2023-02-18T05:08:14;100081.91;;;-6.05;68.44
71126;BME280;58785;55.566;38.058;2023-02-18T05:10:40;100071.47;;;-6.04;68.74
71126;BME280;58785;55.566;38.058;2023-02-18T05:13:06;100084.38;;;-6.01;69.11
71126;BME280;58785;55.566;38.058;2023-02-18T05:15:32;100090.28;;;-5.96;68.84
71126;BME280;58785;55.566;38.058;2023-02-18T05:17:57;100077.94;;;-5.89;69.21
71126;BME280;58785;55.566;38.058;2023-02-18T05:20:23;100083.88;;;-5.86;68.92
71126;BME280;58785;55.566;38.058;2023-02-18T05:22:49;100068.03;;;-5.76;68.57
71126;BME280;58785;55.566;38.058;2023-02-18T05:25:14;100065.28;;;-5.72;68.40
71126;BME280;58785;55.566;38.058;2023-02-18T05:27:40;100063.78;;;-5.79;69.31
71126;BME280;58785;55.566;38.058;2023-02-18T05:30:06;100054.31;;;-5.82;68.93
71126;BME280;58785;55.566;38.058;2023-02-18T05:32:32;100058.16;;;-5.65;69.03
71126;BME280;58785;55.566;38.058;2023-02-18T05:34:57;100054.53;;;-5.60;68.92
71126;BME280;58785;55.566;38.058;2023-02-18T05:37:23;100048.53;;;-5.62;68.78
71126;BME280;58785;55.566;38.058;2023-02-18T05:39:48;100056.03;;;-5.53;68.88
71126;BME280;58785;55.566;38.058;2023-02-18T05:42:14;100040.41;;;-5.51;68.84
71126;BME280;58785;55.566;38.058;2023-02-18T05:44:40;100031.56;;;-5.45;68.33
71126;BME280;58785;55.566;38.058;2023-02-18T05:47:08;100036.97;;;-5.25;68.42
71126;BME280;58785;55.566;38.058;2023-02-18T05:49:34;100038.31;;;-5.13;68.32
71126;BME280;58785;55.566;38.058;2023-02-18T05:52:00;100036.66;;;-5.16;68.64
71126;BME280;58785;55.566;38.058;2023-02-18T05:54:26;100034.22;;;-5.21;68.36
71126;BME280;58785;55.566;38.058;2023-02-18T05:56:52;100023.00;;;-5.21;69.01
71126;BME280;58785;55.566;38.058;2023-02-18T05:59:19;100026.81;;;-5.06;68.08
71126;BME280;58785;55.566;38.058;2023-02-18T06:01:45;100020.41;;;-4.96;67.75
71126;BME280;58785;55.566;38.058;2023-02-18T06:04:11;100013.38;;;-4.94;68.03
71126;BME280;58785;55.566;38.058;2023-02-18T06:06:37;100006.66;;;-5.00;68.01
71126;BME280;58785;55.566;38.058;2023-02-18T06:09:04;100010.97;;;-4.99;68.28
71126;BME280;58785;55.566;38.058;2023-02-18T06:11:30;100002.19;;;-4.96;68.42
71126;BME280;58785;55.566;38.058;2023-02-18T06:13:56;100015.03;;;-4.92;68.18
71126;BME280;58785;55.566;38.058;2023-02-18T06:16:22;99994.59;;;-5.02;69.03
71126;BME280;58785;55.566;38.058;2023-02-18T06:18:48;99999.25;;;-5.10;69.30
71126;BME280;58785;55.566;38.058;2023-02-18T06:21:14;99997.47;;;-5.10;69.50
71126;BME280;58785;55.566;38.058;2023-02-18T06:23:40;99992.81;;;-5.00;68.91
71126;BME280;58785;55.566;38.058;2023-02-18T06:26:06;99967.81;;;-5.04;69.21
71126;BME280;58785;55.566;38.058;2023-02-18T06:28:31;99976.16;;;-4.95;69.31
71126;BME280;58785;55.566;38.058;2023-02-18T06:30:57;99984.47;;;-4.85;69.32
71126;BME280;58785;55.566;38.058;2023-02-18T06:33:23;99971.94;;;-4.74;68.97
71126;BME280;58785;55.566;38.058;2023-02-18T06:35:57;99971.47;;;-4.62;68.36
71126;BME280;58785;55.566;38.058;2023-02-18T06:38:24;99963.75;;;-4.63;68.25
71126;BME280;58785;55.566;38.058;2023-02-18T06:40:49;99953.25;;;-4.60;68.59
71126;BME280;58785;55.566;38.058;2023-02-18T06:43:15;99943.84;;;-4.64;68.43
71126;BME280;58785;55.566;38.058;2023-02-18T06:45:41;99956.88;;;-4.41;68.36
71126;BME280;58785;55.566;38.058;2023-02-18T06:48:07;99956.34;;;-4.27;68.11
71126;BME280;58785;55.566;38.058;2023-02-18T06:50:32;99950.78;;;-4.18;68.08
71126;BME280;58785;55.566;38.058;2023-02-18T06:52:58;99951.38;;;-4.11;68.13
71126;BME280;58785;55.566;38.058;2023-02-18T06:55:24;99941.84;;;-4.11;67.85
71126;BME280;58785;55.566;38.058;2023-02-18T06:57:50;99949.88;;;-3.95;67.90
71126;BME280;58785;55.566;38.058;2023-02-18T07:00:16;99950.66;;;-3.93;67.65
71126;BME280;58785;55.566;38.058;2023-02-18T07:02:42;99936.63;;;-3.89;67.75
71126;BME280;58785;55.566;38.058;2023-02-18T07:05:08;99927.16;;;-3.91;67.69
71126;BME280;58785;55.566;38.058;2023-02-18T07:07:34;99921.22;;;-3.95;68.64
71126;BME280;58785;55.566;38.058;2023-02-18T07:10:00;99909.97;;;-3.95;68.31
71126;BME280;58785;55.566;38.058;2023-02-18T07:12:25;99923.88;;;-3.74;68.18
71126;BME280;58785;55.566;38.058;2023-02-18T07:14:51;99916.53;;;-3.65;67.66
71126;BME280;58785;55.566;38.058;2023-02-18T07:17:17;99913.47;;;-3.54;67.11
71126;BME280;58785;55.566;38.058;2023-02-18T07:19:43;99910.69;;;-3.50;66.99
71126;BME280;58785;55.566;38.058;2023-02-18T07:22:08;99899.47;;;-3.52;67.16
71126;BME280;58785;55.566;38.058;2023-02-18T07:24:34;99892.72;;;-3.56;67.46
71126;BME280;58785;55.566;38.058;2023-02-18T07:27:00;99889.31;;;-3.58;67.40
71126;BME280;58785;55.566;38.058;2023-02-18T07:29:25;99880.72;;;-3.39;67.61
71126;BME280;58785;55.566;38.058;2023-02-18T07:31:51;99872.06;;;-3.40;67.15
71126;BME280;58785;55.566;38.058;2023-02-18T07:34:16;99874.47;;;-3.35;66.61
71126;BME280;58785;55.566;38.058;2023-02-18T07:36:42;99867.88;;;-3.24;67.59
71126;BME280;58785;55.566;38.058;2023-02-18T07:39:08;99863.94;;;-3.13;67.08
71126;BME280;58785;55.566;38.058;2023-02-18T07:41:33;99857.88;;;-3.14;67.58
71126;BME280;58785;55.566;38.058;2023-02-18T07:43:59;99861.09;;;-3.07;67.10
71126;BME280;58785;55.566;38.058;2023-02-18T07:46:25;99843.59;;;-3.05;67.01
71126;BME280;58785;55.566;38.058;2023-02-18T07:48:50;99835.78;;;-3.05;66.56
71126;BME280;58785;55.566;38.058;2023-02-18T07:51:16;99844.25;;;-3.00;67.11
71126;BME280;58785;55.566;38.058;2023-02-18T07:53:42;99837.53;;;-3.06;66.69
71126;BME280;58785;55.566;38.058;2023-02-18T07:56:07;99836.97;;;-2.94;66.59
71126;BME280;58785;55.566;38.058;2023-02-18T07:58:35;99832.25;;;-2.85;66.46
71126;BME280;58785;55.566;38.058;2023-02-18T08:01:05;99827.47;;;-2.76;66.51
71126;BME280;58785;55.566;38.058;2023-02-18T08:03:31;99819.06;;;-2.64;66.31
71126;BME280;58785;55.566;38.058;2023-02-18T08:05:59;99815.34;;;-2.58;66.19
71126;BME280;58785;55.566;38.058;2023-02-18T08:08:27;99826.88;;;-2.45;66.24
71126;BME280;58785;55.566;38.058;2023-02-18T08:10:56;99825.13;;;-2.44;65.44
71126;BME280;58785;55.566;38.058;2023-02-18T08:13:22;99806.75;;;-2.43;65.70
71126;BME280;58785;55.566;38.058;2023-02-18T08:15:48;99801.19;;;-2.35;65.74
71126;BME280;58785;55.566;38.058;2023-02-18T08:18:16;99793.91;;;-2.28;65.75
71126;BME280;58785;55.566;38.058;2023-02-18T08:20:42;99792.16;;;-2.28;64.72
71126;BME280;58785;55.566;38.058;2023-02-18T08:23:09;99792.16;;;-2.28;65.40
71126;BME280;58785;55.566;38.058;2023-02-18T08:25:36;99788.28;;;-2.21;64.89
71126;BME280;58785;55.566;38.058;2023-02-18T08:28:01;99778.78;;;-2.22;64.94
71126;BME280;58785;55.566;38.058;2023-02-18T08:30:27;99778.72;;;-2.03;64.85
71126;BME280;58785;55.566;38.058;2023-02-18T08:32:53;99774.72;;;-2.10;64.52
71126;BME280;58785;55.566;38.058;2023-02-18T08:35:19;99773.25;;;-2.16;64.87
71126;BME280;58785;55.566;38.058;2023-02-18T08:37:44;99764.03;;;-2.23;64.62
71126;BME280;58785;55.566;38.058;2023-02-18T08:40:11;99761.28;;;-2.20;64.56
71126;BME280;58785;55.566;38.058;2023-02-18T08:42:37;99762.66;;;-2.13;64.83
71126;BME280;58785;55.566;38.058;2023-02-18T08:45:03;99754.19;;;-2.00;64.04
71126;BME280;58785;55.566;38.058;2023-02-18T08:47:29;99748.91;;;-1.99;64.13
71126;BME280;58785;55.566;38.058;2023-02-18T08:49:55;99748.50;;;-1.91;64.40
71126;BME280;58785;55.566;38.058;2023-02-18T08:52:21;99740.06;;;-1.79;64.24
71126;BME280;58785;55.566;38.058;2023-02-18T08:54:47;99718.53;;;-1.84;63.94
71126;BME280;58785;55.566;38.058;2023-02-18T08:57:12;99729.19;;;-1.71;63.47
71126;BME280;58785;55.566;38.058;2023-02-18T08:59:38;99726.06;;;-1.78;63.92
71126;BME280;58785;55.566;38.058;2023-02-18T09:02:03;99707.16;;;-1.83;63.74
71126;BME280;58785;55.566;38.058;2023-02-18T09:04:29;99710.75;;;-1.68;63.33
71126;BME280;58785;55.566;38.058;2023-02-18T09:06:56;99699.97;;;-1.62;62.93
71126;BME280;58785;55.566;38.058;2023-02-18T09:09:21;99697.22;;;-1.59;62.74
71126;BME280;58785;55.566;38.058;2023-02-18T09:11:47;99704.03;;;-1.57;63.23
71126;BME280;58785;55.566;38.058;2023-02-18T09:14:13;99703.88;;;-1.54;63.33
71126;BME280;58785;55.566;38.058;2023-02-18T09:16:40;99697.25;;;-1.61;63.00
71126;BME280;58785;55.566;38.058;2023-02-18T09:19:06;99680.25;;;-1.68;63.14
71126;BME280;58785;55.566;38.058;2023-02-18T09:21:32;99683.97;;;-1.56;63.15
71126;BME280;58785;55.566;38.058;2023-02-18T09:23:58;99681.84;;;-1.65;62.98
71126;BME280;58785;55.566;38.058;2023-02-18T09:26:24;99682.84;;;-1.68;62.73
71126;BME280;58785;55.566;38.058;2023-02-18T09:28:52;99660.66;;;-1.77;62.82
71126;BME280;58785;55.566;38.058;2023-02-18T09:31:21;99657.56;;;-1.67;62.85
71126;BME280;58785;55.566;38.058;2023-02-18T09:33:50;99662.59;;;-1.64;62.30
71126;BME280;58785;55.566;38.058;2023-02-18T09:36:16;99655.63;;;-1.64;62.46
71126;BME280;58785;55.566;38.058;2023-02-18T09:38:42;99656.06;;;-1.56;62.60
71126;BME280;58785;55.566;38.058;2023-02-18T09:41:25;99656.13;;;-1.41;62.47
71126;BME280;58785;55.566;38.058;2023-02-18T09:43:56;99632.00;;;-1.31;61.92
71126;BME280;58785;55.566;38.058;2023-02-18T09:49:53;99652.03;;;-1.30;61.53
71126;BME280;58785;55.566;38.058;2023-02-18T09:52:26;99641.81;;;-1.34;61.82
71126;BME280;58785;55.566;38.058;2023-02-18T09:54:54;99626.38;;;-1.39;61.50
71126;BME280;58785;55.566;38.058;2023-02-18T10:00:04;99629.94;;;-1.40;61.65
71126;BME280;58785;55.566;38.058;2023-02-18T10:02:31;99612.38;;;-1.38;61.23
71126;BME280;58785;55.566;38.058;2023-02-18T10:04:57;99613.88;;;-1.34;61.20
71126;BME280;58785;55.566;38.058;2023-02-18T10:07:29;99603.19;;;-1.29;60.88
71126;BME280;58785;55.566;38.058;2023-02-18T10:10:00;99598.34;;;-1.21;60.76
71126;BME280;58785;55.566;38.058;2023-02-18T10:12:29;99588.47;;;-1.16;61.06
71126;BME280;58785;55.566;38.058;2023-02-18T10:15:00;99584.41;;;-0.90;60.55
71126;BME280;58785;55.566;38.058;2023-02-18T10:17:31;99591.22;;;-0.88;60.58
71126;BME280;58785;55.566;38.058;2023-02-18T10:19:58;99580.69;;;-0.72;60.75
71126;BME280;58785;55.566;38.058;2023-02-18T10:22:25;99562.66;;;-0.62;60.12
71126;BME280;58785;55.566;38.058;2023-02-18T10:24:59;99577.97;;;-0.70;60.10
71126;BME280;58785;55.566;38.058;2023-02-18T10:27:29;99558.34;;;-0.77;60.39
71126;BME280;58785;55.566;38.058;2023-02-18T10:30:04;99553.06;;;-0.92;60.36
71126;BME280;58785;55.566;38.058;2023-02-18T10:32:39;99556.19;;;-1.01;60.45
71126;BME280;58785;55.566;38.058;2023-02-18T10:35:50;99544.44;;;-1.08;60.71
71126;BME280;58785;55.566;38.058;2023-02-18T10:38:32;99545.41;;;-1.10;60.84
71126;BME280;58785;55.566;38.058;2023-02-18T10:44:08;99539.81;;;-1.19;60.89
71126;BME280;58785;55.566;38.058;2023-02-18T10:51:52;99518.06;;;-1.05;60.82
71126;BME280;58785;55.566;38.058;2023-02-18T10:54:24;99524.75;;;-0.99;60.51
71126;BME280;58785;55.566;38.058;2023-02-18T10:56:51;99514.50;;;-0.88;60.59
71126;BME280;58785;55.566;38.058;2023-02-18T10:59:25;99497.16;;;-0.91;60.38
71126;BME280;58785;55.566;38.058;2023-02-18T11:01:59;99501.03;;;-0.82;60.39
71126;BME280;58785;55.566;38.058;2023-02-18T11:04:41;99502.59;;;-0.94;60.43
71126;BME280;58785;55.566;38.058;2023-02-18T11:07:15;99503.56;;;-1.10;60.63
71126;BME280;58785;55.566;38.058;2023-02-18T11:09:42;99508.88;;;-1.12;60.99
71126;BME280;58785;55.566;38.058;2023-02-18T11:15:21;99498.31;;;-1.25;61.39
71126;BME280;58785;55.566;38.058;2023-02-18T11:17:51;99482.38;;;-1.36;61.36
71126;BME280;58785;55.566;38.058;2023-02-18T11:20:28;99493.06;;;-1.25;61.88
71126;BME280;58785;55.566;38.058;2023-02-18T11:25:38;99475.88;;;-1.29;61.83
71126;BME280;58785;55.566;38.058;2023-02-18T11:28:06;99476.44;;;-1.24;61.57
71126;BME280;58785;55.566;38.058;2023-02-18T11:30:53;99482.38;;;-1.36;61.92
71126;BME280;58785;55.566;38.058;2023-02-18T11:33:29;99465.22;;;-1.56;61.89
71126;BME280;58785;55.566;38.058;2023-02-18T11:35:58;99475.22;;;-1.78;62.54
71126;BME280;58785;55.566;38.058;2023-02-18T11:41:12;99468.06;;;-1.90;63.45
71126;BME280;58785;55.566;38.058;2023-02-18T11:43:42;99435.41;;;-1.83;63.03
71126;BME280;58785;55.566;38.058;2023-02-18T11:46:21;99461.16;;;-1.61;62.65
71126;BME280;58785;55.566;38.058;2023-02-18T11:48:48;99447.69;;;-1.54;62.38
71126;BME280;58785;55.566;38.058;2023-02-18T11:51:27;99454.34;;;-1.48;62.46
71126;BME280;58785;55.566;38.058;2023-02-18T11:54:04;99443.69;;;-1.45;62.19
71126;BME280;58785;55.566;38.058;2023-02-18T11:56:34;99444.63;;;-1.46;62.34
71126;BME280;58785;55.566;38.058;2023-02-18T11:59:01;99434.91;;;-1.44;61.68
71126;BME280;58785;55.566;38.058;2023-02-18T12:06:43;99422.06;;;-1.33;61.77
71126;BME280;58785;55.566;38.058;2023-02-18T12:09:42;99423.19;;;-1.37;61.62
71126;BME280;58785;55.566;38.058;2023-02-18T12:12:16;99424.38;;;-1.42;61.86
71126;BME280;58785;55.566;38.058;2023-02-18T12:14:44;99414.53;;;-1.53;62.04
71126;BME280;58785;55.566;38.058;2023-02-18T12:29:12;99404.56;;;-1.77;62.18
71126;BME280;58785;55.566;38.058;2023-02-18T12:36:57;99399.63;;;-2.13;63.71
71126;BME280;58785;55.566;38.058;2023-02-18T12:42:31;99395.16;;;-2.42;64.12
71126;BME280;58785;55.566;38.058;2023-02-18T12:50:37;99386.16;;;-2.52;63.97
71126;BME280;58785;55.566;38.058;2023-02-18T12:53:56;99385.00;;;-2.47;63.75
71126;BME280;58785;55.566;38.058;2023-02-18T13:02:47;99370.41;;;-2.35;63.73
71126;BME280;58785;55.566;38.058;2023-02-18T13:05:04;99364.09;;;-2.47;63.85
71126;BME280;58785;55.566;38.058;2023-02-18T13:07:41;99372.13;;;-2.50;63.63
71126;BME280;58785;55.566;38.058;2023-02-18T13:13:20;99367.16;;;-2.39;63.82
71126;BME280;58785;55.566;38.058;2023-02-18T13:16:11;99351.81;;;-2.29;63.32
71126;BME280;58785;55.566;38.058;2023-02-18T13:21:08;99362.09;;;-2.26;63.78
71126;BME280;58785;55.566;38.058;2023-02-18T13:23:47;99358.34;;;-2.22;63.17
71126;BME280;58785;55.566;38.058;2023-02-18T13:26:15;99347.16;;;-2.24;63.33
71126;BME280;58785;55.566;38.058;2023-02-18T13:28:48;99354.34;;;-2.27;63.91
71126;BME280;58785;55.566;38.058;2023-02-18T13:31:34;99326.31;;;-2.40;64.28
71126;BME280;58785;55.566;38.058;2023-02-18T13:34:40;99333.22;;;-2.39;64.18
71126;BME280;58785;55.566;38.058;2023-02-18T13:37:14;99332.03;;;-2.49;64.64
71126;BME280;58785;55.566;38.058;2023-02-18T13:39:48;99338.69;;;-2.59;64.46
71126;BME280;58785;55.566;38.058;2023-02-18T13:47:43;99326.88;;;-2.82;65.12
71126;BME280;58785;55.566;38.058;2023-02-18T13:57:59;99296.06;;;-3.07;65.35
71126;BME280;58785;55.566;38.058;2023-02-18T14:00:34;99303.44;;;-3.15;65.60
71126;BME280;58785;55.566;38.058;2023-02-18T14:03:27;99298.72;;;-3.24;65.59
71126;BME280;58785;55.566;38.058;2023-02-18T14:05:56;99309.16;;;-3.24;64.98
71126;BME280;58785;55.566;38.058;2023-02-18T14:08:33;99295.59;;;-3.31;65.29
71126;BME280;58785;55.566;38.058;2023-02-18T14:16:06;99311.31;;;-3.32;65.75
71126;BME280;58785;55.566;38.058;2023-02-18T14:23:42;99288.09;;;-3.37;66.11
71126;BME280;58785;55.566;38.058;2023-02-18T14:28:43;99285.50;;;-3.37;65.77
71126;BME280;58785;55.566;38.058;2023-02-18T14:45:08;99260.19;;;-3.51;65.63
71126;BME280;58785;55.566;38.058;2023-02-18T14:48:08;99267.66;;;-3.44;66.27
71126;BME280;58785;55.566;38.058;2023-02-18T14:50:42;99266.06;;;-3.47;66.24
71126;BME280;58785;55.566;38.058;2023-02-18T14:53:17;99259.38;;;-3.53;65.85
71126;BME280;58785;55.566;38.058;2023-02-18T14:55:54;99266.44;;;-3.55;66.23
71126;BME280;58785;55.566;38.058;2023-02-18T14:58:37;99239.81;;;-3.60;67.03
71126;BME280;58785;55.566;38.058;2023-02-18T15:01:21;99259.28;;;-3.67;66.73
71126;BME280;58785;55.566;38.058;2023-02-18T15:03:49;99241.69;;;-3.79;66.74
71126;BME280;58785;55.566;38.058;2023-02-18T15:06:27;99252.03;;;-3.78;67.40
71126;BME280;58785;55.566;38.058;2023-02-18T15:08:55;99246.09;;;-3.81;67.02
71126;BME280;58785;55.566;38.058;2023-02-18T15:11:24;99228.50;;;-3.93;67.21
71126;BME280;58785;55.566;38.058;2023-02-18T15:13:52;99217.34;;;-3.95;67.27
71126;BME280;58785;55.566;38.058;2023-02-18T15:16:29;99223.47;;;-3.96;67.41
71126;BME280;58785;55.566;38.058;2023-02-18T15:18:59;99203.03;;;-4.04;67.49
71126;BME280;58785;55.566;38.058;2023-02-18T15:21:31;99210.00;;;-4.05;67.91
71126;BME280;58785;55.566;38.058;2023-02-18T15:24:08;99215.22;;;-4.05;67.32
71126;BME280;58785;55.566;38.058;2023-02-18T15:26:41;99213.44;;;-4.04;67.65
71126;BME280;58785;55.566;38.058;2023-02-18T15:29:18;99204.78;;;-4.05;67.71
71126;BME280;58785;55.566;38.058;2023-02-18T15:31:45;99192.69;;;-4.06;67.74
71126;BME280;58785;55.566;38.058;2023-02-18T15:36:49;99194.91;;;-3.98;67.75
71126;BME280;58785;55.566;38.058;2023-02-18T15:39:15;99189.72;;;-3.98;67.77